Rocky Mount Wilson Regional Airport
KRWI : now visible

Airfield :











YOU CAN JOIN US ON...

 
LOGIN :

Register | Disclaimer

   EN    FR    IT 

 









Legend :    VFR   Marginal VFR   IFR   Intensive IFR   Very Intensive IFR
Visi :
Ceiling :
>= 8 km
>= 3000ft
5 to 8 km
1000 to 3000 ft
1500m to 5 km
500 to 1000 ft
800 to 1500m
200 to 500 ft
< 800m
< 200 ft
Symbols :   Thunderstorms  Fog  Heavy snow  Heavy precipitations  Wind > 20 kt






- Airport Elevation : 159 ft
- IATA code : RWI


KRWI - Rocky Mount Wilson Regional

CURRENT METAR :
  • 252353Z AUTO 00000KT 10SM CLR 23/18 A3013 RMK AO2 SLP200 T02280178 10256 20228 53000

EXPIRED METARs :
  • 252253Z AUTO 07004KT 10SM CLR 24/17 A3012 RMK AO2 SLP200 T02440172
  • 252153Z AUTO 04003KT 10SM CLR 24/17 A3013 RMK AO2 SLP201 T02440167

TAF KRWI
Valid from the 26 at 00:00 until the 27 at 00:00 UTC


252320Z 2600/2624 07004KT P6SM SCT045
FM260800 07003KT P6SM BKN007
FM261500 05006KT P6SM BKN015
FM261900 05004KT P6SM OVC050
KZDC FIR / North America



MET'MAP, your aeronautical weather chart ! - Copyright ORBIFLY December 2007 - Disclaimer

ORBIFLY MET'MAP TEAM :

Programming & Development : Alexandra Zaïnal
Concept & original design : Baudouin d'Aumeries
Assistance for programming : Marc-Olivier Méhu
Technical & hardware support : Manuel Goepfert

Contact : metmap@orbifly.com




SOURCES & CREDITS :

   NOAA       Earth
Advisory